Time;durP1;ratioP1;P1;durP2;ratioP2;P2;SDS_P1;SDS_P2;PMS_P1;PMS_P2;Temp;Humidity;BMP_temperature;BMP_pressure;BME280_temperature;BME280_humidity;BME280_pressure;Samples;Min_cycle;Max_cycle;Signal;HPM_P1;HPM_P2
2021/04/03 00:04:46;;;;;;;19.25;1.98;;;6.30;79.10;;;;;;10484494;28;20101;-65
2021/04/03 00:09:48;;;;;;;19.35;2.95;;;6.30;80.20;;;;;;10486665;28;20119;-66
2021/04/03 00:14:49;;;;;;;24.20;2.70;;;6.30;81.70;;;;;;10487010;28;20040;-67
2021/04/03 00:19:54;;;;;;;18.75;2.40;;;6.30;82.00;;;;;;10483287;28;20041;-67
2021/04/03 00:24:56;;;;;;;26.52;4.43;;;6.40;80.00;;;;;;10481315;28;20718;-67
2021/04/03 00:29:58;;;;;;;15.65;2.67;;;6.40;77.90;;;;;;10483319;28;20143;-67
2021/04/03 00:34:59;;;;;;;36.97;4.85;;;6.40;77.40;;;;;;10483289;28;20102;-67
2021/04/03 00:40:01;;;;;;;28.27;4.07;;;6.50;78.40;;;;;;10486274;28;20051;-66
2021/04/03 00:45:04;;;;;;;21.50;2.97;;;6.50;78.70;;;;;;10484885;28;20495;-67
2021/04/03 00:50:06;;;;;;;33.17;3.50;;;6.50;77.60;;;;;;10484595;28;20071;-67
2021/04/03 00:55:10;;;;;;;20.40;3.33;;;6.40;75.30;;;;;;10484743;28;20071;-68
2021/04/03 01:00:13;;;;;;;23.88;3.15;;;8.20;76.80;;;;;;10485215;28;20032;-67
2021/04/03 01:05:17;;;;;;;24.90;3.58;;;6.50;76.70;;;;;;10483380;28;20564;-68
2021/04/03 01:10:20;;;;;;;27.95;4.60;;;6.40;78.00;;;;;;10485189;28;20055;-67
2021/04/03 01:15:31;;;;;;;33.80;4.03;;;6.50;78.30;;;;;;10489188;28;20052;-66
2021/04/03 01:20:41;;;;;;;28.83;4.88;;;6.50;77.70;;;;;;10489249;28;20366;-66
2021/04/03 01:25:57;;;;;;;23.20;3.75;;;6.50;77.40;;;;;;10489255;28;20052;-67
2021/04/03 01:31:00;;;;;;;12.80;2.40;;;6.50;77.60;;;;;;10481512;28;20052;-66
2021/04/03 01:36:04;;;;;;;23.00;3.33;;;6.50;75.90;;;;;;10488876;28;20037;-66
2021/04/03 01:41:06;;;;;;;29.77;3.30;;;6.50;75.90;;;;;;10491758;28;20047;-66
2021/04/03 01:46:10;;;;;;;30.33;4.07;;;6.50;77.60;;;;;;10491711;28;20055;-67
2021/04/03 01:51:12;;;;;;;27.63;3.78;;;6.50;78.00;;;;;;10490724;28;20047;-67
2021/04/03 01:56:17;;;;;;;30.90;3.35;;;6.50;77.40;;;;;;10491802;28;20446;-67
2021/04/03 02:01:19;;;;;;;19.58;2.97;;;6.60;78.20;;;;;;10491006;28;20036;-67
2021/04/03 02:06:21;;;;;;;32.77;4.17;;;6.50;78.90;;;;;;10490545;28;20143;-67
2021/04/03 02:11:23;;;;;;;23.98;2.65;;;6.60;78.90;;;;;;10490658;28;20530;-67
2021/04/03 02:16:26;;;;;;;19.55;3.63;;;6.60;75.10;;;;;;10490313;28;20075;-68
2021/04/03 02:21:27;;;;;;;18.48;2.90;;;6.50;73.80;;;;;;10489965;28;20048;-67
2021/04/03 02:26:30;;;;;;;19.23;3.20;;;6.50;74.60;;;;;;10490794;28;20044;-66
2021/04/03 02:31:33;;;;;;;27.50;3.15;;;6.60;74.70;;;;;;10490538;28;20044;-67
2021/04/03 02:36:34;;;;;;;20.48;3.47;;;6.60;75.60;;;;;;10488395;28;20594;-67
2021/04/03 02:41:42;;;;;;;23.05;2.67;;;6.60;74.80;;;;;;10489531;28;20066;-67
2021/04/03 02:46:48;;;;;;;21.10;2.80;;;6.60;73.70;;;;;;10487025;28;20086;-67
2021/04/03 02:51:53;;;;;;;20.02;3.55;;;6.60;73.30;;;;;;10488967;28;20072;-66
2021/04/03 02:56:57;;;;;;;30.40;4.18;;;6.60;73.30;;;;;;10490275;28;20119;-66
2021/04/03 03:02:02;;;;;;;25.75;4.13;;;6.60;74.40;;;;;;10487437;28;20033;-66
2021/04/03 03:07:03;;;;;;;46.97;4.85;;;6.60;78.70;;;;;;10488837;28;20538;-67
2021/04/03 03:12:08;;;;;;;41.13;3.70;;;6.50;83.30;;;;;;10486832;28;20203;-66
2021/04/03 03:17:12;;;;;;;31.25;5.13;;;6.40;83.80;;;;;;10489182;28;20140;-66
2021/04/03 03:22:13;;;;;;;28.45;4.32;;;6.40;83.20;;;;;;10488001;28;20131;-68
2021/04/03 03:27:18;;;;;;;27.27;3.78;;;6.40;83.50;;;;;;10484174;28;20060;-67
2021/04/03 03:32:20;;;;;;;30.60;3.55;;;6.40;84.30;;;;;;10480191;28;20095;-67
2021/04/03 03:37:22;;;;;;;25.00;4.03;;;6.40;82.90;;;;;;10485726;28;20063;-66
2021/04/03 03:42:24;;;;;;;17.83;4.07;;;6.40;78.90;;;;;;10486124;28;20119;-66
2021/04/03 03:47:26;;;;;;;33.70;4.10;;;6.40;76.40;;;;;;10486713;28;20060;-67
2021/04/03 03:52:28;;;;;;;28.25;3.58;;;6.40;75.30;;;;;;10487103;28;20040;-67
2021/04/03 03:57:29;;;;;;;24.80;3.83;;;6.50;75.30;;;;;;10487297;28;20131;-67
2021/04/03 04:02:31;;;;;;;36.80;4.32;;;6.50;77.40;;;;;;10486539;28;20040;-67
2021/04/03 04:07:34;;;;;;;35.03;4.63;;;6.40;80.00;;;;;;10486533;28;20112;-67
2021/04/03 04:12:35;;;;;;;;;;;6.40;80.80;;;;;;10487474;28;20086;-66
2021/04/03 04:17:38;;;;;;;16.63;3.05;;;6.40;79.40;;;;;;10486800;28;19990;-67
2021/04/03 04:22:39;;;;;;;20.65;3.25;;;6.40;78.40;;;;;;10486163;28;20514;-67
2021/04/03 04:27:40;;;;;;;16.67;3.78;;;6.40;76.80;;;;;;10486688;28;20065;-67
2021/04/03 04:32:44;;;;;;;30.60;4.35;;;6.40;77.60;;;;;;10485751;28;20079;-66
2021/04/03 04:37:45;;;;;;;22.75;4.47;;;6.50;79.30;;;;;;10486231;28;20047;-66
2021/04/03 04:42:47;;;;;;;28.42;2.97;;;6.50;79.00;;;;;;10490359;28;20040;-67
2021/04/03 04:47:49;;;;;;;15.88;3.15;;;6.50;76.40;;;;;;10494279;28;20049;-67
2021/04/03 04:52:51;;;;;;;27.85;4.22;;;6.50;74.90;;;;;;10494428;28;20055;-67
2021/04/03 04:57:52;;;;;;;26.50;3.88;;;6.50;76.40;;;;;;10493569;28;20101;-66
2021/04/03 05:02:54;;;;;;;26.52;3.80;;;6.50;77.00;;;;;;10493271;28;20388;-67
2021/04/03 05:07:55;;;;;;;32.60;4.85;;;6.50;76.60;;;;;;10493566;28;20063;-67
2021/04/03 05:12:59;;;;;;;38.35;4.93;;;6.50;78.30;;;;;;10493431;28;20075;-67
2021/04/03 05:18:02;;;;;;;22.80;4.03;;;6.50;80.00;;;;;;10492834;28;20062;-67
2021/04/03 05:23:03;;;;;;;25.80;3.93;;;8.10;80.20;;;;;;10493388;28;20135;-67
2021/04/03 05:28:05;;;;;;;48.15;4.28;;;6.60;82.00;;;;;;10491918;28;20143;-67
2021/04/03 05:33:07;;;;;;;29.77;4.22;;;6.60;85.00;;;;;;10489950;28;20071;-67
2021/04/03 05:38:08;;;;;;;37.47;4.53;;;6.50;85.40;;;;;;10490211;28;20162;-68
2021/04/03 05:43:10;;;;;;;24.33;4.03;;;6.60;84.80;;;;;;10488910;28;20478;-67
2021/04/03 05:48:13;;;;;;;34.60;3.85;;;6.60;83.30;;;;;;10489287;28;20257;-67
2021/04/03 05:53:15;;;;;;;29.98;4.43;;;6.80;83.10;;;;;;10489472;28;20048;-68
2021/04/03 05:58:16;;;;;;;34.00;3.70;;;7.00;82.00;;;;;;10488855;28;20430;-68
2021/04/03 06:03:18;;;;;;;24.38;3.90;;;7.20;80.40;;;;;;10489122;28;20143;-67
2021/04/03 06:08:20;;;;;;;23.15;2.95;;;7.70;77.30;;;;;;10490104;28;20167;-68
2021/04/03 06:13:21;;;;;;;25.30;3.13;;;8.40;72.90;;;;;;10488562;28;20071;-66
2021/04/03 06:18:23;;;;;;;22.75;3.80;;;7.90;73.00;;;;;;10489852;28;20187;-66
2021/04/03 06:23:31;;;;;;;19.48;2.85;;;7.50;73.80;;;;;;10483727;28;20475;-67
2021/04/03 06:28:33;;;;;;;30.02;4.22;;;7.60;73.60;;;;;;10489830;28;20050;-67
2021/04/03 06:33:35;;;;;;;29.38;4.35;;;8.30;72.10;;;;;;10491745;28;20123;-67
2021/04/03 06:38:37;;;;;;;28.70;4.68;;;8.70;70.40;;;;;;10489149;28;20121;-66
2021/04/03 06:43:39;;;;;;;21.42;3.45;;;12.70;58.10;;;;;;10489123;28;20047;-68
2021/04/03 06:48:41;;;;;;;27.02;4.40;;;13.70;52.00;;;;;;10490031;28;20057;-67
2021/04/03 06:53:43;;;;;;;24.23;3.23;;;11.80;60.30;;;;;;10487347;28;20036;-68
2021/04/03 06:58:46;;;;;;;27.38;5.65;;;11.10;62.40;;;;;;10488677;28;20040;-67
2021/04/03 07:03:52;;;;;;;28.48;4.05;;;10.40;65.00;;;;;;10485492;28;20051;-67
2021/04/03 07:08:54;;;;;;;20.95;4.60;;;11.30;62.30;;;;;;10486805;28;20095;-67
2021/04/03 07:13:59;;;;;;;32.47;4.47;;;15.80;47.80;;;;;;10485563;28;20113;-68
2021/04/03 07:19:05;;;;;;;24.95;3.53;;;16.40;43.30;;;;;;10486927;28;20090;-67
2021/04/03 07:24:07;;;;;;;28.90;4.10;;;14.90;47.00;;;;;;10484094;28;20044;-67
2021/04/03 07:29:09;;;;;;;28.63;4.05;;;13.50;51.50;;;;;;10485791;28;20048;-68
2021/04/03 07:34:11;;;;;;;22.52;4.38;;;14.00;50.50;;;;;;10485019;28;20201;-66
2021/04/03 07:39:35;;;;;;;24.73;4.30;;;14.50;47.40;;;;;;10486309;28;20139;-69
2021/04/03 07:44:38;;;;;;;29.50;5.00;;;15.60;46.30;;;;;;10485917;28;20478;-70
2021/04/03 07:49:40;;;;;;;26.33;4.32;;;16.40;43.30;;;;;;10486727;28;20114;-67
2021/04/03 07:54:41;;;;;;;40.75;4.65;;;15.20;46.00;;;;;;10483614;28;20547;-67
2021/04/03 08:00:01;;;;;;;20.42;3.95;;;15.30;46.90;;;;;;10478896;28;20061;-67
2021/04/03 08:05:11;;;;;;;35.70;4.75;;;14.90;47.60;;;;;;10484014;28;20082;-66
2021/04/03 08:10:19;;;;;;;29.58;4.00;;;16.30;43.70;;;;;;10483699;28;20036;-69
2021/04/03 08:15:21;;;;;;;19.80;3.65;;;14.40;46.50;;;;;;10482321;28;20040;-67
2021/04/03 08:20:23;;;;;;;25.90;3.05;;;14.00;48.80;;;;;;10481206;28;20868;-69
2021/04/03 08:25:25;;;;;;;25.55;3.58;;;15.50;43.50;;;;;;10482350;28;20087;-69
2021/04/03 08:30:31;;;;;;;20.30;3.25;;;15.50;44.10;;;;;;10482504;28;20047;-69
2021/04/03 08:35:35;;;;;;;22.67;4.25;;;16.90;40.60;;;;;;10483286;28;20392;-70
2021/04/03 08:40:38;;;;;;;27.40;5.28;;;17.80;38.10;;;;;;10483413;28;20053;-69
2021/04/03 08:45:42;;;;;;;21.17;3.80;;;19.30;36.30;;;;;;10480423;28;20143;-68
2021/04/03 08:50:46;;;;;;;20.70;3.67;;;20.40;34.00;;;;;;10482662;28;20123;-69
2021/04/03 08:55:47;;;;;;;23.63;4.13;;;17.60;37.90;;;;;;10482980;28;20531;-69
2021/04/03 09:00:51;;;;;;;23.33;3.97;;;16.50;40.60;;;;;;10482578;28;20044;-68
2021/04/03 09:05:53;;;;;;;19.15;4.05;;;17.60;38.20;;;;;;10482375;28;20080;-68
2021/04/03 09:10:56;;;;;;;21.92;3.65;;;17.30;38.00;;;;;;10480051;28;20048;-69
2021/04/03 09:16:07;;;;;;;23.02;2.95;;;15.40;41.30;;;;;;10481360;28;20486;-68
2021/04/03 09:21:19;;;;;;;21.23;3.45;;;15.60;42.10;;;;;;10482603;28;20036;-69
2021/04/03 09:26:30;;;;;;;18.58;3.88;;;17.40;38.00;;;;;;10480676;28;20097;-68
2021/04/03 09:31:42;;;;;;;23.85;4.85;;;17.40;38.20;;;;;;10489953;28;20102;-68
2021/04/03 09:36:45;;;;;;;22.60;4.25;;;18.90;35.80;;;;;;10491181;28;20045;-68
2021/04/03 09:41:48;;;;;;;21.70;3.53;;;19.60;34.60;;;;;;10487016;28;20083;-69
2021/04/03 09:46:50;;;;;;;38.65;4.78;;;20.60;33.50;;;;;;10477031;28;20579;-67
2021/04/03 09:51:52;;;;;;;21.10;4.78;;;19.30;35.90;;;;;;10488990;28;20032;-67
2021/04/03 09:56:53;;;;;;;31.88;5.15;;;18.80;37.20;;;;;;10488540;28;20119;-66
2021/04/03 10:01:55;;;;;;;26.47;4.20;;;17.20;39.80;;;;;;10488681;28;20040;-70
2021/04/03 10:06:58;;;;;;;28.75;4.80;;;16.60;40.50;;;;;;10487620;28;20687;-70
2021/04/03 10:12:00;;;;;;;26.85;4.57;;;16.00;42.20;;;;;;10488574;28;20068;-67
2021/04/03 10:17:01;;;;;;;26.53;3.63;;;15.30;44.40;;;;;;10487123;28;20055;-67
2021/04/03 10:22:04;;;;;;;29.58;4.90;;;14.90;45.50;;;;;;10484897;28;20060;-68
2021/04/03 10:27:06;;;;;;;;;;;14.70;46.40;;;;;;10477830;28;20082;-66
2021/04/03 10:32:08;;;;;;;31.48;5.63;;;14.50;45.30;;;;;;10485249;28;19986;-66
2021/04/03 10:37:10;;;;;;;32.05;4.55;;;14.60;44.80;;;;;;10485751;28;20056;-66
2021/04/03 10:42:13;;;;;;;26.40;4.22;;;14.70;44.40;;;;;;10486684;28;20048;-66
2021/04/03 10:47:14;;;;;;;22.00;4.10;;;15.50;43.80;;;;;;10487097;28;20037;-66
2021/04/03 10:52:16;;;;;;;26.10;3.95;;;15.10;44.70;;;;;;10486966;28;20048;-67
2021/04/03 10:57:21;;;;;;;21.45;5.38;;;16.10;43.00;;;;;;10487553;28;20097;-66
2021/04/03 11:02:22;;;;;;;24.60;4.55;;;16.70;40.30;;;;;;10485717;28;20043;-67
2021/04/03 11:07:25;;;;;;;24.97;4.27;;;17.30;39.50;;;;;;10487984;28;20088;-68
2021/04/03 11:12:26;;;;;;;29.27;5.68;;;17.40;39.10;;;;;;10489528;28;20135;-68
2021/04/03 11:17:27;;;;;;;25.67;4.73;;;16.90;41.00;;;;;;10482945;28;20134;-68
2021/04/03 11:22:29;;;;;;;23.80;4.30;;;17.30;41.00;;;;;;10481306;28;20033;-67
2021/04/03 11:27:31;;;;;;;;;;;17.50;40.40;;;;;;10486044;28;20053;-68
2021/04/03 11:32:32;;;;;;;34.25;4.75;;;16.90;41.20;;;;;;10485187;28;19920;-68
2021/04/03 11:37:34;;;;;;;23.60;3.93;;;16.90;41.10;;;;;;10485116;28;20398;-67
2021/04/03 11:42:36;;;;;;;;;;;16.40;42.40;;;;;;10485902;28;20139;-67
2021/04/03 11:47:38;;;;;;;27.13;4.15;;;16.90;42.00;;;;;;10483337;28;19928;-68
2021/04/03 11:52:40;;;;;;;;;;;17.50;40.00;;;;;;10484088;28;20642;-67
2021/04/03 11:57:42;;;;;;;26.38;5.20;;;17.30;40.10;;;;;;10484489;28;19923;-68
2021/04/03 12:02:43;;;;;;;31.92;5.47;;;16.60;41.90;;;;;;10483502;28;20045;-67
2021/04/03 12:07:45;;;;;;;24.80;4.53;;;15.40;42.70;;;;;;10482475;28;20143;-67
2021/04/03 12:12:47;;;;;;;37.97;5.10;;;15.30;44.60;;;;;;10484126;28;20441;-68
2021/04/03 12:17:48;;;;;;;18.93;4.73;;;15.20;44.70;;;;;;10483113;28;20076;-68
2021/04/03 12:22:50;;;;;;;26.30;4.43;;;15.30;45.30;;;;;;10482136;28;20058;-69
2021/04/03 12:27:51;;;;;;;24.05;4.35;;;14.90;44.50;;;;;;10481952;28;20060;-68
2021/04/03 12:32:52;;;;;;;23.25;3.80;;;14.80;45.10;;;;;;10481989;28;20123;-68
2021/04/03 12:37:55;;;;;;;19.48;4.10;;;14.90;44.80;;;;;;10482277;28;20469;-68
2021/04/03 12:42:56;;;;;;;19.52;4.32;;;15.00;44.20;;;;;;10481616;28;20691;-68
2021/04/03 12:47:57;;;;;;;28.63;4.90;;;14.90;43.50;;;;;;10479907;28;20437;-68
2021/04/03 12:52:59;;;;;;;15.52;3.60;;;14.80;44.80;;;;;;10481005;28;20044;-67
2021/04/03 12:58:01;;;;;;;21.27;4.00;;;14.80;44.10;;;;;;10480772;28;20135;-67
2021/04/03 13:03:02;;;;;;;16.63;3.13;;;14.90;43.90;;;;;;10487362;28;20045;-68
2021/04/03 13:08:05;;;;;;;14.37;2.93;;;14.80;43.20;;;;;;10491292;28;20404;-67
2021/04/03 13:13:06;;;;;;;19.25;4.47;;;14.70;43.20;;;;;;10492546;28;20041;-66
2021/04/03 13:18:07;;;;;;;16.15;3.55;;;14.50;44.30;;;;;;10493005;28;20592;-68
2021/04/03 13:23:10;;;;;;;31.30;3.78;;;14.30;44.00;;;;;;10487391;28;20056;-65
2021/04/03 13:28:11;;;;;;;22.40;4.15;;;14.20;45.00;;;;;;10484052;28;20631;-69
2021/04/03 13:33:12;;;;;;;16.58;3.75;;;14.00;44.90;;;;;;10484329;28;20193;-68
2021/04/03 13:38:14;;;;;;;19.45;3.97;;;13.80;44.30;;;;;;10487272;28;20067;-70
2021/04/03 13:43:16;;;;;;;22.33;3.35;;;13.50;45.90;;;;;;10487212;28;20040;-69
2021/04/03 13:48:17;;;;;;;20.45;4.68;;;13.50;45.00;;;;;;10484459;28;20319;-69
2021/04/03 13:53:19;;;;;;;20.48;3.17;;;13.30;45.80;;;;;;10487560;28;20048;-70
2021/04/03 13:58:22;;;;;;;18.85;3.45;;;13.20;46.40;;;;;;10486876;28;20575;-68
2021/04/03 14:03:23;;;;;;;15.30;3.35;;;12.90;48.00;;;;;;10488650;28;20052;-68
2021/04/03 14:08:25;;;;;;;24.90;4.18;;;12.60;47.90;;;;;;10488175;28;20147;-70
2021/04/03 14:13:27;;;;;;;23.92;4.05;;;12.30;48.80;;;;;;10485246;28;20036;-69
2021/04/03 14:18:28;;;;;;;27.75;3.63;;;12.30;50.10;;;;;;10486350;28;20040;-66
2021/04/03 14:23:30;;;;;;;32.35;5.65;;;12.20;49.60;;;;;;10481589;28;20120;-66
2021/04/03 14:28:32;;;;;;;17.88;3.60;;;12.10;50.00;;;;;;10481978;28;20102;-66
2021/04/03 14:33:33;;;;;;;23.17;3.45;;;11.90;50.20;;;;;;10482359;28;20045;-66
2021/04/03 14:38:36;;;;;;;22.20;3.83;;;11.80;50.90;;;;;;10483311;28;20179;-65
2021/04/03 14:43:38;;;;;;;;;;;11.70;52.30;;;;;;10483191;28;20477;-65
2021/04/03 14:48:39;;;;;;;25.38;3.58;;;11.60;54.10;;;;;;10480762;28;20413;-66
2021/04/03 14:53:41;;;;;;;16.85;4.00;;;11.60;54.90;;;;;;10481393;28;20048;-65
2021/04/03 14:58:43;;;;;;;20.20;3.40;;;11.50;56.00;;;;;;10483597;28;20434;-66
2021/04/03 15:03:44;;;;;;;21.02;4.25;;;11.50;55.00;;;;;;10481277;28;20055;-66
2021/04/03 15:08:46;;;;;;;32.45;4.00;;;11.50;53.00;;;;;;10480922;28;20151;-67
2021/04/03 15:13:47;;;;;;;32.97;3.40;;;11.20;54.10;;;;;;10480442;28;20433;-67
2021/04/03 15:18:49;;;;;;;18.88;3.55;;;10.90;54.70;;;;;;10481482;28;20131;-67
2021/04/03 15:23:56;;;;;;;25.35;3.70;;;10.70;55.50;;;;;;10477871;28;20121;-67
2021/04/03 15:28:58;;;;;;;23.13;3.28;;;10.70;56.10;;;;;;10483303;28;20048;-68
2021/04/03 15:33:59;;;;;;;21.08;3.80;;;10.50;56.30;;;;;;10481739;28;20140;-68
2021/04/03 15:39:03;;;;;;;20.88;2.97;;;10.30;56.00;;;;;;10480508;28;20075;-66
2021/04/03 15:44:04;;;;;;;21.02;3.33;;;10.10;56.90;;;;;;10480616;28;20123;-67
2021/04/03 15:49:05;;;;;;;20.83;3.58;;;10.00;56.70;;;;;;10478329;28;20135;-66
2021/04/03 15:54:07;;;;;;;25.75;3.42;;;9.90;56.70;;;;;;10481961;28;20087;-66
2021/04/03 15:59:09;;;;;;;25.30;4.10;;;9.70;57.30;;;;;;10479378;28;20076;-65
2021/04/03 16:04:10;;;;;;;22.90;3.90;;;9.60;59.50;;;;;;10478898;28;20846;-67
2021/04/03 16:09:12;;;;;;;24.77;3.80;;;9.50;61.10;;;;;;10480000;28;20151;-66
2021/04/03 16:14:14;;;;;;;31.53;5.03;;;9.30;61.40;;;;;;10479490;28;20060;-67
2021/04/03 16:19:15;;;;;;;17.48;2.97;;;9.20;62.70;;;;;;10480785;28;20071;-67
2021/04/03 16:24:17;;;;;;;27.48;3.80;;;9.00;65.00;;;;;;10482224;28;20550;-67
2021/04/03 16:29:19;;;;;;;30.42;4.43;;;8.90;66.40;;;;;;10481245;28;20135;-66
2021/04/03 16:34:20;;;;;;;28.95;4.55;;;9.00;68.50;;;;;;10481695;28;20146;-67
2021/04/03 16:39:22;;;;;;;28.73;4.00;;;9.10;68.90;;;;;;10482591;28;20041;-66
2021/04/03 16:44:24;;;;;;;26.60;3.83;;;9.00;67.10;;;;;;10481281;28;20594;-68
2021/04/03 16:49:25;;;;;;;31.73;5.28;;;8.90;67.80;;;;;;10480855;28;20800;-66
2021/04/03 16:54:27;;;;;;;24.35;3.78;;;8.80;68.20;;;;;;10482082;28;20052;-66
2021/04/03 16:59:28;;;;;;;21.57;3.67;;;8.50;68.00;;;;;;10480262;28;20044;-68
2021/04/03 17:04:30;;;;;;;25.20;3.22;;;8.20;68.80;;;;;;10482427;28;20080;-69
2021/04/03 17:09:32;;;;;;;22.25;3.60;;;8.00;70.00;;;;;;10480753;28;20057;-69
2021/04/03 17:14:34;;;;;;;29.98;3.88;;;7.80;70.80;;;;;;10481739;28;20044;-66
2021/04/03 17:19:37;;;;;;;22.23;3.67;;;7.60;71.50;;;;;;10479662;28;20431;-68
2021/04/03 17:24:39;;;;;;;30.58;4.03;;;7.80;72.00;;;;;;10477320;28;20060;-65
2021/04/03 17:29:40;;;;;;;19.70;4.13;;;7.30;72.40;;;;;;10463656;28;20067;-65
2021/04/03 17:34:42;;;;;;;23.98;3.10;;;7.20;73.20;;;;;;10478668;28;20048;-68
2021/04/03 17:39:44;;;;;;;22.20;3.38;;;7.10;73.80;;;;;;10479350;28;20044;-65
2021/04/03 17:44:46;;;;;;;29.40;5.03;;;6.90;74.00;;;;;;10480354;28;20041;-67
2021/04/03 17:49:47;;;;;;;25.10;3.58;;;6.80;78.70;;;;;;10481108;28;20087;-67
2021/04/03 17:54:49;;;;;;;22.27;3.53;;;6.60;75.90;;;;;;10486463;28;20127;-69
2021/04/03 17:59:51;;;;;;;29.90;3.47;;;6.60;76.60;;;;;;10485733;28;20040;-69
2021/04/03 18:04:52;;;;;;;29.35;4.05;;;6.40;76.60;;;;;;10485911;28;20044;-68
2021/04/03 18:09:54;;;;;;;16.55;3.83;;;6.30;76.70;;;;;;10484542;28;20072;-68
2021/04/03 18:14:56;;;;;;;24.27;3.38;;;6.10;77.30;;;;;;10486692;28;20070;-69
2021/04/03 18:19:57;;;;;;;13.40;2.97;;;6.10;78.20;;;;;;10486674;28;20033;-69
2021/04/03 18:25:00;;;;;;;30.42;4.57;;;6.00;79.00;;;;;;10483416;28;20102;-68
2021/04/03 18:30:01;;;;;;;30.13;5.82;;;5.90;79.80;;;;;;10485892;28;20052;-67
2021/04/03 18:35:04;;;;;;;30.60;4.15;;;5.90;80.70;;;;;;10488764;28;20060;-69
2021/04/03 18:40:10;;;;;;;19.83;4.07;;;5.90;81.70;;;;;;10488518;28;20071;-67
2021/04/03 18:45:13;;;;;;;12.15;3.00;;;6.10;81.80;;;;;;10487229;28;20040;-66
2021/04/03 18:50:16;;;;;;;14.13;3.50;;;6.30;81.10;;;;;;10490338;28;20051;-67
2021/04/03 18:55:22;;;;;;;22.25;3.60;;;6.50;80.70;;;;;;10490458;28;20447;-68
2021/04/03 19:00:23;;;;;;;19.23;3.90;;;6.60;80.10;;;;;;10487737;28;20083;-68
2021/04/03 19:05:34;;;;;;;22.15;2.97;;;6.70;79.70;;;;;;10480010;28;20124;-70
2021/04/03 19:10:39;;;;;;;30.98;3.30;;;6.70;79.70;;;;;;10489958;28;20048;-69
2021/04/03 19:15:41;;;;;;;19.63;3.00;;;6.70;79.10;;;;;;10486649;28;20092;-69
2021/04/03 19:20:42;;;;;;;20.05;3.13;;;6.70;79.60;;;;;;10489290;28;20120;-69
2021/04/03 19:25:44;;;;;;;24.35;3.33;;;6.70;80.60;;;;;;10488434;28;20139;-69
2021/04/03 19:30:45;;;;;;;16.60;3.28;;;6.70;79.90;;;;;;10484371;28;20638;-69
2021/04/03 19:35:47;;;;;;;21.92;3.55;;;6.70;78.50;;;;;;10485794;28;20040;-72
2021/04/03 19:40:49;;;;;;;26.92;4.78;;;6.60;77.30;;;;;;10490356;28;20120;-68
2021/04/03 19:45:51;;;;;;;20.73;3.30;;;6.60;76.80;;;;;;10489930;28;20047;-68
2021/04/03 19:50:52;;;;;;;21.50;3.83;;;6.60;76.90;;;;;;10487125;28;20631;-69
2021/04/03 19:55:54;;;;;;;27.45;3.50;;;5.70;76.80;;;;;;10485679;28;20127;-69
2021/04/03 20:00:55;;;;;;;18.60;2.83;;;6.50;77.40;;;;;;10489315;28;20384;-69
2021/04/03 20:05:58;;;;;;;20.85;3.28;;;6.50;76.60;;;;;;10487602;28;20491;-70
2021/04/03 20:11:00;;;;;;;26.20;5.18;;;6.50;76.60;;;;;;10487853;28;20094;-71
2021/04/03 20:16:03;;;;;;;29.03;3.47;;;6.50;77.10;;;;;;10487671;28;20478;-68
2021/04/03 20:21:04;;;;;;;17.25;2.85;;;6.50;77.90;;;;;;10484238;28;20545;-71
2021/04/03 20:26:07;;;;;;;22.13;4.65;;;6.60;78.50;;;;;;10486375;28;20076;-66
2021/04/03 20:31:09;;;;;;;22.98;3.10;;;6.60;78.40;;;;;;10486261;28;20041;-70
2021/04/03 20:36:10;;;;;;;25.65;5.03;;;6.60;79.00;;;;;;10483792;28;20391;-68
2021/04/03 20:41:12;;;;;;;15.85;3.05;;;6.60;79.70;;;;;;10485884;28;20123;-68
2021/04/03 20:46:14;;;;;;;32.63;4.10;;;6.70;79.70;;;;;;10484329;28;20483;-72
2021/04/03 20:51:23;;;;;;;13.15;3.28;;;6.70;80.10;;;;;;10483687;28;20124;-72
2021/04/03 20:56:27;;;;;;;26.90;3.50;;;6.60;80.00;;;;;;10492393;28;20052;-71
2021/04/03 21:01:28;;;;;;;20.90;2.72;;;6.60;79.70;;;;;;10489733;28;20044;-69
2021/04/03 21:06:30;;;;;;;19.48;3.58;;;6.60;79.00;;;;;;10492307;28;20048;-71
2021/04/03 21:11:32;;;;;;;19.38;3.13;;;6.70;78.00;;;;;;10492342;28;20040;-70
2021/04/03 21:16:33;;;;;;;21.75;3.22;;;6.50;77.30;;;;;;10495538;28;20087;-69
2021/04/03 21:21:35;;;;;;;17.63;3.08;;;6.50;76.90;;;;;;10496889;28;20045;-69
2021/04/03 21:26:38;;;;;;;23.00;3.67;;;6.50;77.90;;;;;;10496420;28;20053;-69
2021/04/03 21:31:39;;;;;;;18.00;3.10;;;6.50;78.90;;;;;;10499099;28;20055;-71
2021/04/03 21:36:40;;;;;;;19.45;3.00;;;6.50;79.10;;;;;;10500708;28;20064;-69
2021/04/03 21:41:42;;;;;;;25.27;4.13;;;6.40;79.60;;;;;;10498246;28;20391;-70
2021/04/03 21:46:44;;;;;;;16.38;2.33;;;6.50;79.40;;;;;;10480060;28;20063;-71
2021/04/03 21:51:45;;;;;;;16.70;2.58;;;6.40;78.30;;;;;;10495879;28;20072;-69
2021/04/03 21:56:47;;;;;;;17.63;3.15;;;6.40;78.10;;;;;;10496345;28;20532;-72
2021/04/03 22:01:49;;;;;;;22.80;2.50;;;6.50;78.40;;;;;;10495017;28;20067;-70
2021/04/03 22:06:50;;;;;;;20.40;3.05;;;6.40;78.80;;;;;;10494832;28;20669;-69
2021/04/03 22:11:58;;;;;;;23.67;4.47;;;6.50;80.20;;;;;;10495571;28;20415;-70
2021/04/03 22:16:59;;;;;;;19.42;2.70;;;6.50;80.20;;;;;;10496217;28;20100;-71
2021/04/03 22:22:01;;;;;;;11.95;2.20;;;6.50;80.80;;;;;;10495572;28;20041;-71
2021/04/03 22:27:03;;;;;;;14.45;3.10;;;6.50;81.50;;;;;;10494198;28;20044;-70
2021/04/03 22:32:05;;;;;;;21.42;3.17;;;6.50;81.40;;;;;;10494276;28;20132;-71
2021/04/03 22:37:06;;;;;;;16.02;3.13;;;6.50;81.30;;;;;;10493994;28;20033;-71
2021/04/03 22:42:08;;;;;;;20.90;3.30;;;6.50;81.20;;;;;;10494782;28;20044;-69
2021/04/03 22:47:11;;;;;;;17.02;3.13;;;6.50;81.10;;;;;;10493823;28;20135;-69
2021/04/03 22:52:12;;;;;;;21.80;2.90;;;6.50;80.80;;;;;;10496153;28;20049;-70
2021/04/03 22:57:14;;;;;;;28.98;4.75;;;6.60;81.20;;;;;;10499364;28;20041;-69
2021/04/03 23:02:16;;;;;;;20.38;4.53;;;6.40;81.50;;;;;;10483664;28;20543;-69
2021/04/03 23:07:17;;;;;;;15.27;3.28;;;6.40;81.80;;;;;;10491084;28;20040;-69
2021/04/03 23:12:19;;;;;;;18.80;3.30;;;6.40;82.10;;;;;;10493713;28;20043;-69
2021/04/03 23:17:21;;;;;;;14.40;3.20;;;6.40;82.30;;;;;;10492784;28;20129;-71
2021/04/03 23:22:22;;;;;;;15.40;3.10;;;6.40;82.00;;;;;;10493579;28;20123;-70
2021/04/03 23:27:24;;;;;;;14.90;3.80;;;6.40;81.50;;;;;;10492109;28;20082;-70
2021/04/03 23:32:26;;;;;;;15.40;2.72;;;6.30;82.40;;;;;;10491457;28;20047;-71
2021/04/03 23:37:27;;;;;;;30.52;4.40;;;7.90;83.30;;;;;;10492292;28;20032;-70
2021/04/03 23:42:30;;;;;;;15.05;3.03;;;6.40;82.80;;;;;;10490734;28;20044;-70
2021/04/03 23:47:31;;;;;;;18.75;2.35;;;6.40;82.60;;;;;;10481038;28;20093;-69
2021/04/03 23:52:33;;;;;;;19.02;2.65;;;7.60;82.40;;;;;;10488771;28;20040;-68
2021/04/03 23:57:35;;;;;;;16.33;2.55;;;6.40;81.60;;;;;;10491961;28;20504;-68
